Time;durP1;ratioP1;P1;durP2;ratioP2;P2;SDS_P1;SDS_P2;PMS_P1;PMS_P2;Temp;Humidity;BMP_temperature;BMP_pressure;BME280_temperature;BME280_humidity;BME280_pressure;Samples;Min_cycle;Max_cycle;Signal;HPM_P1;HPM_P2
2021/03/03 00:01:53;;;;;;;0.80;0.77;;;14.50;57.70;;;;;;5088618;28;20101;-33
2021/03/03 00:04:20;;;;;;;0.77;0.63;;;14.50;57.90;;;;;;5093395;28;20544;-34
2021/03/03 00:06:46;;;;;;;0.60;0.55;;;14.50;57.50;;;;;;5090430;28;20059;-34
2021/03/03 00:09:12;;;;;;;1.35;0.70;;;14.50;57.50;;;;;;5085019;28;20028;-33
2021/03/03 00:11:38;;;;;;;0.50;0.50;;;14.50;57.70;;;;;;5089161;28;20139;-34
2021/03/03 00:14:04;;;;;;;0.85;0.60;;;14.50;57.70;;;;;;5099384;28;20024;-34
2021/03/03 00:16:30;;;;;;;0.77;0.65;;;14.50;57.60;;;;;;5076922;28;20064;-34
2021/03/03 00:18:56;;;;;;;0.75;0.75;;;14.50;57.80;;;;;;5094107;28;20024;-34
2021/03/03 00:21:23;;;;;;;0.80;0.70;;;14.50;57.80;;;;;;5092335;28;20046;-33
2021/03/03 00:23:49;;;;;;;0.68;0.50;;;14.50;57.80;;;;;;5069844;28;20050;-33
2021/03/03 00:26:15;;;;;;;0.73;0.60;;;14.40;57.70;;;;;;5088059;28;20032;-33
2021/03/03 00:28:42;;;;;;;1.05;0.80;;;14.40;57.70;;;;;;5095388;28;20024;-33
2021/03/03 00:31:08;;;;;;;;;;;14.40;57.80;;;;;;5087126;28;20028;-33
2021/03/03 00:33:34;;;;;;;0.80;0.60;;;14.40;57.60;;;;;;5093316;28;19941;-34
2021/03/03 00:36:01;;;;;;;1.08;0.80;;;14.40;57.80;;;;;;5086238;28;20107;-33
2021/03/03 00:38:27;;;;;;;0.95;0.68;;;14.40;58.00;;;;;;5084566;28;20060;-33
2021/03/03 00:40:53;;;;;;;0.95;0.68;;;14.40;57.80;;;;;;5095034;28;20047;-33
2021/03/03 00:43:19;;;;;;;0.73;0.65;;;14.30;57.80;;;;;;5071635;28;20016;-33
2021/03/03 00:45:45;;;;;;;1.00;0.65;;;14.30;57.90;;;;;;5091025;28;20028;-33
2021/03/03 00:48:12;;;;;;;1.08;0.70;;;14.30;58.00;;;;;;5091522;28;20036;-33
2021/03/03 00:50:38;;;;;;;1.33;0.90;;;14.30;57.80;;;;;;5089758;28;20111;-33
2021/03/03 00:53:11;;;;;;;0.90;0.80;;;14.30;57.90;;;;;;5087925;28;20097;-33
2021/03/03 00:55:38;;;;;;;0.70;0.70;;;14.30;58.00;;;;;;5085450;28;20025;-33
2021/03/03 00:58:04;;;;;;;1.10;0.82;;;14.30;58.30;;;;;;5081716;28;20051;-34
2021/03/03 01:00:30;;;;;;;1.05;0.95;;;14.30;58.20;;;;;;5085621;28;20032;-33
2021/03/03 01:02:56;;;;;;;1.10;0.80;;;14.30;58.30;;;;;;5090609;28;20607;-33
2021/03/03 01:05:23;;;;;;;0.98;0.77;;;14.20;58.20;;;;;;5091565;28;20024;-33
2021/03/03 01:07:49;;;;;;;0.85;0.77;;;14.20;58.30;;;;;;5070776;28;20056;-33
2021/03/03 01:10:16;;;;;;;0.77;0.75;;;14.30;58.30;;;;;;5091229;28;20021;-33
2021/03/03 01:12:42;;;;;;;0.88;0.70;;;14.20;58.50;;;;;;5094699;28;20808;-33
2021/03/03 01:15:09;;;;;;;1.08;0.73;;;14.30;58.20;;;;;;5093877;28;20135;-33
2021/03/03 01:17:38;;;;;;;1.33;0.75;;;14.30;58.10;;;;;;5094811;28;20035;-33
2021/03/03 01:20:05;;;;;;;1.10;0.90;;;14.20;58.30;;;;;;5082309;28;20107;-33
2021/03/03 01:22:31;;;;;;;0.93;0.75;;;14.20;58.30;;;;;;5092347;28;20082;-33
2021/03/03 01:24:57;;;;;;;1.00;0.70;;;14.10;58.30;;;;;;5087440;28;20053;-33
2021/03/03 01:27:23;;;;;;;1.02;0.77;;;14.10;58.30;;;;;;5095153;28;20040;-33
2021/03/03 01:29:49;;;;;;;1.95;0.70;;;14.10;58.40;;;;;;5086649;28;20024;-32
2021/03/03 01:32:16;;;;;;;0.70;0.68;;;14.10;58.50;;;;;;5091107;28;20075;-33
2021/03/03 01:34:42;;;;;;;0.80;0.60;;;14.10;58.30;;;;;;5083126;28;20024;-32
2021/03/03 01:37:08;;;;;;;0.77;0.77;;;14.10;58.50;;;;;;5088815;28;20024;-33
2021/03/03 01:39:34;;;;;;;0.73;0.60;;;14.10;58.60;;;;;;5087466;28;20492;-33
2021/03/03 01:42:00;;;;;;;0.95;0.68;;;14.10;58.60;;;;;;5091865;28;20036;-33
2021/03/03 01:44:26;;;;;;;0.80;0.70;;;14.10;58.80;;;;;;5090930;28;20056;-32
2021/03/03 01:46:52;;;;;;;0.95;0.70;;;14.10;58.60;;;;;;5093669;28;20107;-33
2021/03/03 01:49:18;;;;;;;0.80;0.60;;;14.10;58.80;;;;;;5094334;28;20602;-33
2021/03/03 01:51:45;;;;;;;0.70;0.70;;;14.10;58.70;;;;;;5097190;28;20048;-33
2021/03/03 01:54:11;;;;;;;1.98;0.80;;;14.00;58.60;;;;;;5076735;28;20105;-33
2021/03/03 01:56:37;;;;;;;0.95;0.90;;;14.00;58.80;;;;;;5087756;28;20032;-33
2021/03/03 01:59:03;;;;;;;0.77;0.70;;;14.00;58.80;;;;;;5089448;28;20055;-33
2021/03/03 02:01:32;;;;;;;1.27;0.90;;;14.00;59.00;;;;;;5085469;28;20035;-33
2021/03/03 02:03:58;;;;;;;1.45;0.95;;;14.00;59.00;;;;;;5090673;28;20092;-33
2021/03/03 02:06:44;;;;;;;0.73;0.70;;;14.00;59.10;;;;;;5092396;28;20099;-33
2021/03/03 02:09:36;;;;;;;0.80;0.80;;;14.00;59.10;;;;;;5057305;28;20052;-33
2021/03/03 02:12:12;;;;;;;1.70;1.00;;;14.00;59.00;;;;;;5075517;28;20044;-33
2021/03/03 02:14:38;;;;;;;1.13;1.02;;;13.90;59.00;;;;;;5065232;28;20075;-32
2021/03/03 02:17:04;;;;;;;1.23;1.02;;;13.90;59.10;;;;;;5057098;28;20024;-33
2021/03/03 02:19:34;;;;;;;1.13;1.00;;;13.90;58.90;;;;;;5076485;28;20028;-33
2021/03/03 02:22:35;;;;;;;1.15;0.88;;;13.90;58.90;;;;;;5076432;28;20040;-33
2021/03/03 02:25:22;;;;;;;1.27;0.88;;;13.90;58.90;;;;;;5095011;28;20092;-33
2021/03/03 02:27:48;;;;;;;0.88;0.80;;;13.90;58.90;;;;;;5085853;28;20028;-33
2021/03/03 02:30:15;;;;;;;1.65;1.05;;;13.90;59.10;;;;;;5072052;28;20115;-33
2021/03/03 02:32:41;;;;;;;0.68;0.68;;;13.90;59.10;;;;;;5068552;28;20048;-33
2021/03/03 02:35:10;;;;;;;0.98;0.75;;;13.90;59.10;;;;;;5092070;28;20035;-34
2021/03/03 02:37:36;;;;;;;1.17;1.00;;;13.90;59.20;;;;;;5064172;28;20027;-33
2021/03/03 02:40:07;;;;;;;1.63;0.90;;;13.80;59.80;;;;;;5070352;28;20020;-33
2021/03/03 02:42:37;;;;;;;1.00;0.90;;;13.80;59.30;;;;;;5086040;28;20028;-33
2021/03/03 02:45:16;;;;;;;0.93;0.85;;;13.80;59.50;;;;;;5073564;28;20049;-33
2021/03/03 02:47:42;;;;;;;1.58;1.17;;;13.80;59.50;;;;;;5075420;28;20446;-33
2021/03/03 02:50:09;;;;;;;1.08;0.95;;;13.80;59.50;;;;;;5064077;28;20025;-33
2021/03/03 02:52:55;;;;;;;1.20;0.80;;;13.70;59.70;;;;;;5098206;28;20035;-33
2021/03/03 02:55:30;;;;;;;1.08;0.90;;;13.80;59.50;;;;;;5088448;28;20029;-33
2021/03/03 02:57:57;;;;;;;1.48;1.08;;;13.70;59.50;;;;;;5073029;28;20028;-33
2021/03/03 03:00:28;;;;;;;;;;;13.70;59.60;;;;;;5088153;28;20028;-33
2021/03/03 03:03:23;;;;;;;1.10;0.90;;;13.70;59.60;;;;;;5088995;28;19915;-33
2021/03/03 03:06:08;;;;;;;1.25;1.15;;;13.70;59.60;;;;;;5080119;28;20041;-33
2021/03/03 03:08:35;;;;;;;1.35;0.90;;;13.70;59.70;;;;;;5074420;28;20095;-33
2021/03/03 03:11:05;;;;;;;1.90;1.20;;;13.70;59.70;;;;;;5073230;28;20027;-34
2021/03/03 03:13:33;;;;;;;0.98;0.80;;;13.70;59.80;;;;;;5066609;28;20711;-33
2021/03/03 03:15:59;;;;;;;0.75;0.60;;;13.70;59.70;;;;;;5043997;28;20041;-33
2021/03/03 03:18:34;;;;;;;0.80;0.80;;;13.60;59.60;;;;;;5049276;28;20086;-33
2021/03/03 03:21:00;;;;;;;1.50;0.88;;;13.60;59.70;;;;;;5079035;28;20613;-33
2021/03/03 03:23:27;;;;;;;1.23;0.70;;;13.70;59.60;;;;;;5059255;28;20028;-34
2021/03/03 03:25:54;;;;;;;1.15;0.95;;;13.60;59.50;;;;;;5054381;28;20264;-33
2021/03/03 03:28:20;;;;;;;0.98;0.90;;;13.60;59.60;;;;;;5080610;28;20036;-33
2021/03/03 03:30:46;;;;;;;1.25;0.80;;;13.60;59.60;;;;;;5054964;28;20033;-33
2021/03/03 03:33:12;;;;;;;1.10;0.90;;;13.60;59.60;;;;;;5072831;28;20782;-33
2021/03/03 03:35:38;;;;;;;1.42;0.90;;;13.60;59.70;;;;;;5072088;28;20051;-33
2021/03/03 03:38:04;;;;;;;1.08;0.85;;;13.60;59.70;;;;;;5095311;28;20170;-33
2021/03/03 03:40:31;;;;;;;1.20;1.10;;;13.60;59.80;;;;;;5090236;28;20032;-32
2021/03/03 03:42:57;;;;;;;1.10;0.90;;;13.50;59.90;;;;;;5096790;28;20039;-33
2021/03/03 03:45:23;;;;;;;1.05;0.90;;;13.50;59.80;;;;;;5088739;28;20044;-32
2021/03/03 03:47:50;;;;;;;1.27;1.03;;;13.50;59.80;;;;;;5062267;28;20790;-34
2021/03/03 03:50:16;;;;;;;1.10;0.97;;;13.50;59.80;;;;;;5073635;28;20030;-33
2021/03/03 03:52:42;;;;;;;1.05;0.80;;;13.50;59.80;;;;;;5081222;28;20044;-33
2021/03/03 03:55:09;;;;;;;1.02;0.93;;;13.40;59.90;;;;;;5066300;28;20187;-32
2021/03/03 03:57:56;;;;;;;1.33;0.90;;;13.50;59.90;;;;;;5088615;28;20028;-33
2021/03/03 04:00:22;;;;;;;1.90;0.90;;;13.50;59.90;;;;;;5087425;28;20035;-33
2021/03/03 04:02:48;;;;;;;0.85;0.80;;;13.50;59.90;;;;;;5081225;28;20057;-32
2021/03/03 04:05:16;;;;;;;0.98;0.90;;;13.40;59.80;;;;;;5073902;28;20170;-33
2021/03/03 04:07:42;;;;;;;;;;;13.40;60.00;;;;;;5073248;28;20044;-33
2021/03/03 04:10:09;;;;;;;1.10;1.00;;;13.40;60.10;;;;;;5092031;28;20659;-33
2021/03/03 04:12:35;;;;;;;1.83;0.90;;;13.40;60.10;;;;;;5090800;28;20064;-33
2021/03/03 04:15:02;;;;;;;1.05;0.82;;;13.30;60.10;;;;;;5085820;28;20021;-33
2021/03/03 04:17:28;;;;;;;0.70;0.70;;;13.30;60.30;;;;;;5087389;28;20034;-32
2021/03/03 04:19:54;;;;;;;0.80;0.73;;;13.30;61.00;;;;;;5084971;28;20039;-33
2021/03/03 04:22:20;;;;;;;1.40;0.98;;;13.30;60.30;;;;;;5090144;28;20089;-32
2021/03/03 04:24:46;;;;;;;0.98;0.88;;;13.30;60.30;;;;;;5086950;28;20025;-33
2021/03/03 04:27:12;;;;;;;1.10;0.90;;;13.30;60.20;;;;;;5088379;28;20032;-33
2021/03/03 04:29:39;;;;;;;1.80;1.02;;;13.40;60.10;;;;;;5090798;28;20025;-33
2021/03/03 04:32:06;;;;;;;1.20;1.05;;;13.30;60.00;;;;;;5090534;28;20043;-33
2021/03/03 04:34:32;;;;;;;0.65;0.65;;;13.40;60.10;;;;;;5090962;28;20104;-33
2021/03/03 04:36:58;;;;;;;1.38;1.00;;;13.40;60.10;;;;;;5081604;28;20029;-33
2021/03/03 04:39:25;;;;;;;0.93;0.88;;;13.30;59.90;;;;;;5082466;28;20039;-33
2021/03/03 04:41:51;;;;;;;0.85;0.75;;;13.30;59.90;;;;;;5085365;28;20032;-33
2021/03/03 04:44:17;;;;;;;1.55;0.90;;;13.30;60.10;;;;;;5088710;28;20039;-33
2021/03/03 04:46:43;;;;;;;1.10;1.00;;;13.30;60.00;;;;;;5081645;28;20092;-33
2021/03/03 04:49:09;;;;;;;0.80;0.80;;;13.30;60.20;;;;;;5087965;28;20048;-33
2021/03/03 04:51:36;;;;;;;0.80;0.77;;;13.20;60.20;;;;;;5083902;28;20032;-33
2021/03/03 04:54:02;;;;;;;0.90;0.80;;;13.20;60.20;;;;;;5087994;28;20776;-33
2021/03/03 04:56:29;;;;;;;0.73;0.73;;;13.20;60.20;;;;;;5097740;28;20028;-33
2021/03/03 04:58:55;;;;;;;1.15;1.00;;;13.20;60.30;;;;;;5093362;28;20032;-33
2021/03/03 05:01:21;;;;;;;1.23;0.80;;;13.20;60.40;;;;;;5096553;28;20034;-33
2021/03/03 05:03:47;;;;;;;0.82;0.82;;;13.20;61.10;;;;;;5087597;28;20031;-33
2021/03/03 05:06:13;;;;;;;0.80;0.80;;;13.20;60.40;;;;;;5094363;28;20032;-33
2021/03/03 05:08:39;;;;;;;1.13;0.90;;;13.10;60.50;;;;;;5092289;28;20036;-33
2021/03/03 05:11:06;;;;;;;0.90;0.73;;;13.20;60.50;;;;;;5096648;28;20024;-33
2021/03/03 05:13:32;;;;;;;1.00;0.80;;;13.20;60.70;;;;;;5099278;28;20028;-33
2021/03/03 05:15:59;;;;;;;1.05;0.95;;;13.10;60.60;;;;;;5093132;28;20024;-33
2021/03/03 05:18:25;;;;;;;0.82;0.73;;;13.10;60.60;;;;;;5098669;28;20028;-32
2021/03/03 05:20:51;;;;;;;1.33;0.93;;;13.10;60.70;;;;;;5085642;28;20021;-33
2021/03/03 05:23:28;;;;;;;1.30;1.00;;;13.10;60.70;;;;;;5092322;28;20056;-33
2021/03/03 05:25:54;;;;;;;1.00;0.88;;;13.10;60.70;;;;;;5099261;28;20035;-33
2021/03/03 05:28:20;;;;;;;2.28;1.13;;;13.10;60.70;;;;;;5091469;28;20025;-33
2021/03/03 05:30:47;;;;;;;1.40;1.20;;;13.10;60.70;;;;;;5083656;28;20029;-33
2021/03/03 05:33:21;;;;;;;1.10;0.90;;;13.10;60.80;;;;;;5095692;28;20130;-33
2021/03/03 05:35:47;;;;;;;1.67;1.10;;;13.10;60.80;;;;;;5089907;28;20036;-33
2021/03/03 05:38:13;;;;;;;1.20;1.08;;;13.10;60.70;;;;;;5092497;28;20087;-32
2021/03/03 05:40:39;;;;;;;1.20;0.77;;;13.10;60.80;;;;;;5087540;28;20024;-32
2021/03/03 05:43:05;;;;;;;1.45;0.90;;;13.10;60.70;;;;;;5094795;28;20036;-33
2021/03/03 05:45:31;;;;;;;1.00;0.90;;;13.10;60.70;;;;;;5089456;28;20025;-32
2021/03/03 05:47:58;;;;;;;1.40;0.95;;;13.00;60.70;;;;;;5072218;28;20033;-33
2021/03/03 05:50:24;;;;;;;1.27;0.93;;;13.00;60.70;;;;;;5075106;28;20050;-33
2021/03/03 05:52:50;;;;;;;1.15;1.00;;;13.00;60.90;;;;;;5067294;28;20046;-33
2021/03/03 05:55:16;;;;;;;0.90;0.90;;;13.00;61.00;;;;;;5045102;28;20032;-33
2021/03/03 05:57:42;;;;;;;1.63;1.00;;;13.00;61.00;;;;;;5068325;28;20116;-33
2021/03/03 06:00:09;;;;;;;1.42;0.88;;;13.00;61.00;;;;;;5054847;28;20025;-33
2021/03/03 06:02:36;;;;;;;1.02;0.90;;;13.00;61.00;;;;;;5069330;28;20036;-33
2021/03/03 06:05:03;;;;;;;;;;;12.90;61.00;;;;;;5087377;28;20113;-33
2021/03/03 06:07:29;;;;;;;1.35;1.00;;;12.90;61.00;;;;;;5085277;28;19966;-33
2021/03/03 06:09:55;;;;;;;1.90;1.10;;;13.00;61.10;;;;;;5068862;28;20025;-33
2021/03/03 06:12:22;;;;;;;1.33;0.85;;;12.90;61.10;;;;;;5098171;28;20040;-33
2021/03/03 06:14:48;;;;;;;1.30;1.02;;;12.90;61.10;;;;;;5089833;28;20024;-32
2021/03/03 06:17:14;;;;;;;1.63;1.00;;;12.90;61.10;;;;;;5090679;28;20029;-33
2021/03/03 06:19:40;;;;;;;0.95;0.80;;;12.90;61.10;;;;;;5061152;28;20024;-33
2021/03/03 06:22:21;;;;;;;1.10;1.00;;;12.90;61.20;;;;;;5077729;28;20036;-33
2021/03/03 06:24:48;;;;;;;1.30;1.10;;;12.90;61.80;;;;;;5090724;28;20016;-33
2021/03/03 06:27:14;;;;;;;1.70;1.13;;;12.90;61.10;;;;;;5097391;28;20039;-33
2021/03/03 06:29:40;;;;;;;0.90;0.90;;;12.90;61.30;;;;;;5089114;28;20028;-33
2021/03/03 06:32:07;;;;;;;1.02;0.88;;;12.90;61.30;;;;;;5087859;28;20073;-33
2021/03/03 06:34:33;;;;;;;1.20;0.93;;;12.80;61.30;;;;;;5095276;28;20053;-33
2021/03/03 06:37:00;;;;;;;1.08;0.85;;;12.80;61.20;;;;;;5084813;28;20050;-33
2021/03/03 06:39:27;;;;;;;0.90;0.77;;;12.80;61.20;;;;;;5089438;28;20023;-33
2021/03/03 06:41:54;;;;;;;0.85;0.73;;;12.80;61.30;;;;;;5091838;28;20053;-33
2021/03/03 06:44:21;;;;;;;1.20;1.00;;;12.80;61.20;;;;;;5096843;28;20024;-33
2021/03/03 06:47:06;;;;;;;1.27;0.90;;;12.80;61.10;;;;;;5089954;28;20037;-33
2021/03/03 06:49:33;;;;;;;1.17;0.90;;;12.80;61.00;;;;;;5073979;28;20322;-33
2021/03/03 06:51:59;;;;;;;1.20;1.00;;;12.80;61.50;;;;;;5094030;28;20550;-33
2021/03/03 06:54:25;;;;;;;1.08;0.85;;;12.80;61.10;;;;;;5089787;28;20028;-33
2021/03/03 06:56:55;;;;;;;0.88;0.80;;;12.80;61.20;;;;;;5089743;28;20048;-33
2021/03/03 06:59:30;;;;;;;1.10;0.90;;;12.80;61.10;;;;;;5092903;28;20020;-33
2021/03/03 07:02:00;;;;;;;1.40;1.00;;;12.80;61.30;;;;;;5092209;28;20041;-34
2021/03/03 07:04:29;;;;;;;0.95;0.85;;;12.80;61.40;;;;;;5086575;28;20020;-33
2021/03/03 07:07:00;;;;;;;1.02;0.93;;;12.80;61.40;;;;;;5083934;28;20139;-33
2021/03/03 07:09:36;;;;;;;1.10;1.00;;;12.70;61.40;;;;;;5087504;28;20063;-33
2021/03/03 07:12:10;;;;;;;1.45;1.00;;;12.80;61.50;;;;;;5094972;28;20064;-34
2021/03/03 07:14:40;;;;;;;0.75;0.75;;;12.70;61.40;;;;;;5090825;28;20020;-33
2021/03/03 07:17:08;;;;;;;1.35;1.10;;;12.70;61.40;;;;;;5089960;28;20035;-34
2021/03/03 07:19:41;;;;;;;1.55;1.10;;;12.70;61.50;;;;;;5090196;28;20552;-33
2021/03/03 07:22:50;;;;;;;2.10;1.23;;;12.70;61.50;;;;;;5075880;28;20082;-34
2021/03/03 07:25:17;;;;;;;1.17;0.98;;;12.70;61.50;;;;;;5006148;28;20037;-34
2021/03/03 07:27:43;;;;;;;;;;;12.70;61.70;;;;;;5011540;28;20030;-32
2021/03/03 07:30:13;;;;;;;0.98;0.85;;;12.70;61.60;;;;;;5003962;28;19959;-33
2021/03/03 07:32:40;;;;;;;1.48;0.85;;;12.60;61.80;;;;;;5009577;28;20046;-33
2021/03/03 07:35:07;;;;;;;1.63;1.08;;;12.60;61.80;;;;;;4991009;28;20072;-32
2021/03/03 07:37:37;;;;;;;1.38;1.02;;;12.60;61.70;;;;;;4986264;28;20053;-33
2021/03/03 07:40:05;;;;;;;1.48;1.38;;;12.60;61.90;;;;;;5009870;28;20121;-33
2021/03/03 07:42:31;;;;;;;;;;;12.60;61.80;;;;;;5000977;28;20038;-34
2021/03/03 07:44:59;;;;;;;1.40;1.05;;;12.60;61.80;;;;;;4999712;28;19910;-33
2021/03/03 07:47:29;;;;;;;1.23;1.00;;;12.60;61.90;;;;;;5002112;28;20073;-33
2021/03/03 07:50:15;;;;;;;1.20;1.00;;;12.60;61.80;;;;;;5010663;28;20041;-33
2021/03/03 07:53:04;;;;;;;1.10;1.00;;;12.60;61.80;;;;;;5006534;28;20038;-33
2021/03/03 07:55:33;;;;;;;1.30;0.77;;;12.60;61.90;;;;;;4986449;28;20038;-32
2021/03/03 07:57:59;;;;;;;1.42;1.10;;;12.60;61.90;;;;;;4989442;28;20033;-33
2021/03/03 08:00:32;;;;;;;2.08;1.30;;;12.60;61.90;;;;;;5000776;28;20037;-33
2021/03/03 08:02:58;;;;;;;1.95;1.20;;;12.60;61.80;;;;;;5091138;28;20028;-33
2021/03/03 08:05:36;;;;;;;1.17;0.98;;;12.60;61.90;;;;;;5095826;28;20046;-33
2021/03/03 08:08:12;;;;;;;1.52;1.20;;;12.50;61.90;;;;;;5089926;28;20048;-33
2021/03/03 08:10:40;;;;;;;1.10;0.82;;;12.50;61.90;;;;;;5083467;28;20058;-33
2021/03/03 08:13:07;;;;;;;1.20;1.00;;;12.50;61.90;;;;;;5085280;28;20473;-33
2021/03/03 08:15:34;;;;;;;1.67;1.10;;;12.50;61.90;;;;;;5088808;28;20028;-33
2021/03/03 08:18:19;;;;;;;1.90;1.08;;;12.50;62.00;;;;;;5077470;28;20058;-33
2021/03/03 08:20:48;;;;;;;1.30;1.20;;;12.50;61.90;;;;;;5096086;28;20020;-34
2021/03/03 08:23:33;;;;;;;1.17;0.90;;;12.50;62.00;;;;;;5073396;28;20928;-33
2021/03/03 08:26:22;;;;;;;1.40;1.10;;;12.50;62.10;;;;;;5088969;28;20062;-33
2021/03/03 08:28:52;;;;;;;1.30;0.93;;;12.50;62.00;;;;;;5069917;28;20032;-33
2021/03/03 08:31:20;;;;;;;0.93;0.85;;;12.40;62.10;;;;;;5083756;28;20067;-33
2021/03/03 08:33:49;;;;;;;1.52;1.10;;;12.50;62.10;;;;;;5097252;28;20032;-32
2021/03/03 08:36:21;;;;;;;1.23;1.05;;;12.50;62.10;;;;;;5080636;28;20025;-32
2021/03/03 08:38:56;;;;;;;1.42;1.23;;;12.50;62.20;;;;;;5090394;28;20095;-33
2021/03/03 08:41:26;;;;;;;1.35;0.93;;;12.40;62.30;;;;;;5095877;28;20101;-34
2021/03/03 08:44:04;;;;;;;2.88;1.00;;;12.40;62.30;;;;;;5087221;28;20112;-33
2021/03/03 08:46:30;;;;;;;1.50;1.00;;;12.40;62.30;;;;;;5070870;28;20050;-32
2021/03/03 08:48:56;;;;;;;2.45;1.23;;;12.40;62.30;;;;;;5089717;28;20012;-33
2021/03/03 08:51:28;;;;;;;2.58;1.17;;;12.40;62.30;;;;;;5092798;28;20039;-33
2021/03/03 08:53:55;;;;;;;1.23;1.10;;;12.40;62.30;;;;;;5089417;28;20024;-32
2021/03/03 08:56:40;;;;;;;1.63;1.20;;;12.40;62.30;;;;;;5090768;28;20029;-32
2021/03/03 08:59:13;;;;;;;0.95;0.88;;;12.40;62.30;;;;;;5090498;28;20028;-33
2021/03/03 09:02:02;;;;;;;1.33;1.20;;;12.40;62.20;;;;;;5083169;28;20016;-33
2021/03/03 09:04:46;;;;;;;1.60;1.23;;;12.40;62.10;;;;;;5090731;28;20542;-32
2021/03/03 09:07:26;;;;;;;1.70;1.20;;;12.40;62.20;;;;;;5088290;28;20036;-33
2021/03/03 09:09:52;;;;;;;1.88;1.10;;;12.40;62.20;;;;;;5087165;28;20044;-33
2021/03/03 09:12:21;;;;;;;2.65;1.15;;;12.40;62.30;;;;;;5071219;28;20119;-33
2021/03/03 09:14:48;;;;;;;1.77;1.10;;;12.40;62.30;;;;;;5067841;28;20031;-33
2021/03/03 09:17:16;;;;;;;1.00;0.90;;;12.30;62.30;;;;;;5088227;28;20036;-33
2021/03/03 09:19:42;;;;;;;1.52;1.00;;;12.30;62.30;;;;;;5083413;28;20027;-33
2021/03/03 09:22:20;;;;;;;1.33;1.08;;;12.30;62.40;;;;;;5083720;28;20060;-32
2021/03/03 09:24:47;;;;;;;1.52;1.13;;;12.30;62.50;;;;;;5070753;28;20058;-33
2021/03/03 09:27:13;;;;;;;1.55;1.00;;;12.30;62.50;;;;;;5083547;28;20032;-33
2021/03/03 09:29:40;;;;;;;1.20;1.10;;;12.30;62.50;;;;;;5091353;28;20115;-33
2021/03/03 09:32:10;;;;;;;1.52;1.25;;;12.30;62.50;;;;;;5087780;28;20043;-33
2021/03/03 09:34:49;;;;;;;1.48;0.88;;;12.30;62.50;;;;;;5095302;28;20033;-33
2021/03/03 09:37:15;;;;;;;1.33;1.17;;;12.30;62.60;;;;;;5090949;28;20135;-33
2021/03/03 09:39:42;;;;;;;1.10;1.00;;;12.20;62.60;;;;;;5089970;28;20028;-33
2021/03/03 09:42:09;;;;;;;1.13;1.00;;;12.30;62.60;;;;;;5094753;28;20424;-33
2021/03/03 09:44:56;;;;;;;1.30;1.20;;;12.20;62.60;;;;;;5094242;28;20032;-32
2021/03/03 09:47:26;;;;;;;1.30;1.02;;;12.20;62.80;;;;;;5095251;28;20035;-34
2021/03/03 09:49:53;;;;;;;1.02;1.00;;;12.20;62.80;;;;;;5092936;28;20051;-33
2021/03/03 09:52:19;;;;;;;1.73;1.20;;;12.20;62.80;;;;;;5090308;28;20035;-33
2021/03/03 09:54:45;;;;;;;2.78;1.15;;;12.20;62.80;;;;;;5069946;28;20036;-40
2021/03/03 09:57:12;;;;;;;1.25;1.10;;;12.20;62.80;;;;;;5088885;28;20024;-33
2021/03/03 09:59:39;;;;;;;;;;;12.20;62.90;;;;;;5089642;28;20024;-33
2021/03/03 10:02:06;;;;;;;1.25;0.90;;;12.20;62.90;;;;;;5090620;28;19911;-33
2021/03/03 10:04:32;;;;;;;1.77;1.08;;;12.20;63.00;;;;;;5069306;28;20032;-33
2021/03/03 10:06:58;;;;;;;1.15;1.05;;;12.20;63.00;;;;;;5070587;28;20143;-34
2021/03/03 10:09:26;;;;;;;2.83;1.20;;;12.10;63.00;;;;;;5086097;28;20032;-33
2021/03/03 10:11:52;;;;;;;2.45;1.10;;;12.20;62.90;;;;;;5093088;28;20029;-32
2021/03/03 10:14:18;;;;;;;1.45;1.13;;;12.20;62.90;;;;;;5073177;28;20461;-33
2021/03/03 10:17:02;;;;;;;1.75;0.95;;;12.10;62.90;;;;;;5095767;28;20028;-33
2021/03/03 10:19:28;;;;;;;1.27;1.13;;;12.20;63.00;;;;;;5095406;28;20023;-33
2021/03/03 10:21:54;;;;;;;1.27;1.00;;;12.10;62.80;;;;;;5071547;28;20097;-33
2021/03/03 10:24:22;;;;;;;1.55;1.00;;;12.20;62.90;;;;;;5093260;28;20031;-33
2021/03/03 10:26:50;;;;;;;1.20;1.10;;;12.10;63.00;;;;;;5086703;28;20034;-32
2021/03/03 10:29:36;;;;;;;1.85;1.30;;;12.10;63.00;;;;;;5091914;28;20024;-33
2021/03/03 10:32:20;;;;;;;1.42;1.10;;;12.10;62.90;;;;;;5089779;28;20129;-33
2021/03/03 10:34:46;;;;;;;1.33;0.98;;;12.10;63.00;;;;;;5075860;28;20056;-33
2021/03/03 10:37:23;;;;;;;1.05;0.90;;;12.10;63.10;;;;;;5088482;28;20036;-33
2021/03/03 10:39:50;;;;;;;1.98;1.23;;;12.10;63.30;;;;;;5083477;28;20025;-33
2021/03/03 10:42:21;;;;;;;1.30;1.10;;;12.10;63.30;;;;;;5070445;28;20032;-33
2021/03/03 10:44:52;;;;;;;1.30;1.00;;;12.10;63.20;;;;;;5088422;28;20032;-33
2021/03/03 10:47:42;;;;;;;1.35;1.25;;;12.00;63.10;;;;;;5088037;28;20536;-33
2021/03/03 10:50:09;;;;;;;1.42;1.13;;;12.10;63.30;;;;;;5070688;28;20021;-33
2021/03/03 10:52:35;;;;;;;;;;;12.00;63.20;;;;;;5090575;28;20048;-33
2021/03/03 10:55:14;;;;;;;1.30;1.20;;;12.00;63.30;;;;;;5099285;28;19917;-33
2021/03/03 10:58:19;;;;;;;1.23;1.00;;;12.00;63.40;;;;;;5091654;28;20046;-33
2021/03/03 11:00:54;;;;;;;1.23;1.00;;;12.00;63.50;;;;;;5088044;28;20047;-33
2021/03/03 11:03:20;;;;;;;1.42;1.27;;;12.00;63.60;;;;;;5089452;28;20552;-33
2021/03/03 11:05:54;;;;;;;1.13;1.02;;;12.00;63.50;;;;;;5064527;28;20036;-32
2021/03/03 11:08:20;;;;;;;1.52;1.33;;;12.00;63.50;;;;;;5090436;28;20060;-33
2021/03/03 11:10:47;;;;;;;1.47;1.37;;;12.00;63.40;;;;;;5080400;28;20043;-33
2021/03/03 11:13:13;;;;;;;1.30;0.97;;;12.00;63.40;;;;;;5089651;28;20297;-33
2021/03/03 11:15:40;;;;;;;1.58;1.30;;;11.90;63.40;;;;;;5091647;28;20348;-33
2021/03/03 11:18:08;;;;;;;1.50;1.27;;;11.90;63.40;;;;;;5088552;28;20109;-33
2021/03/03 11:20:34;;;;;;;1.10;1.00;;;12.00;63.50;;;;;;5094453;28;20032;-33
2021/03/03 11:23:00;;;;;;;2.65;1.10;;;12.00;63.40;;;;;;5090232;28;20029;-33
2021/03/03 11:25:27;;;;;;;1.42;1.33;;;11.90;63.40;;;;;;5096439;28;20035;-34
2021/03/03 11:27:53;;;;;;;1.00;0.90;;;11.90;63.30;;;;;;5094912;28;20043;-33
2021/03/03 11:30:19;;;;;;;1.75;1.30;;;12.00;63.30;;;;;;5084535;28;20122;-35
2021/03/03 11:32:45;;;;;;;1.65;1.00;;;12.00;63.40;;;;;;5092358;28;20139;-33
2021/03/03 11:35:12;;;;;;;1.30;1.20;;;11.90;63.40;;;;;;5092333;28;20043;-33
2021/03/03 11:37:38;;;;;;;1.40;1.15;;;11.90;63.40;;;;;;5086068;28;20025;-33
2021/03/03 11:40:04;;;;;;;1.60;1.30;;;11.90;63.40;;;;;;5090784;28;20111;-33
2021/03/03 11:42:31;;;;;;;1.35;1.20;;;11.90;63.50;;;;;;5083893;28;20043;-32
2021/03/03 11:44:57;;;;;;;1.65;1.17;;;11.90;63.50;;;;;;5095828;28;20060;-33
2021/03/03 11:47:23;;;;;;;2.33;1.27;;;11.90;63.50;;;;;;5089180;28;20024;-33
2021/03/03 11:49:49;;;;;;;2.17;1.20;;;11.90;63.50;;;;;;5087752;28;20032;-33
2021/03/03 11:52:15;;;;;;;2.08;1.20;;;11.90;63.60;;;;;;5094338;28;20099;-33
2021/03/03 11:54:41;;;;;;;1.23;1.10;;;11.90;63.60;;;;;;5092831;28;20694;-33
2021/03/03 11:57:07;;;;;;;1.30;1.17;;;11.90;63.70;;;;;;5084773;28;20033;-33
2021/03/03 11:59:34;;;;;;;1.40;1.17;;;11.90;63.70;;;;;;5091496;28;20024;-32
2021/03/03 12:02:00;;;;;;;1.40;1.30;;;11.90;63.80;;;;;;5090609;28;20024;-33
2021/03/03 12:04:26;;;;;;;1.50;1.20;;;11.80;63.80;;;;;;5095600;28;20032;-33
2021/03/03 12:06:52;;;;;;;1.80;1.20;;;11.80;63.80;;;;;;5090155;28;20100;-33
2021/03/03 12:09:18;;;;;;;1.17;0.90;;;11.80;63.90;;;;;;5095177;28;20028;-33
2021/03/03 12:11:45;;;;;;;1.33;1.15;;;11.80;63.80;;;;;;5095933;28;20048;-33
2021/03/03 12:14:11;;;;;;;1.42;1.25;;;11.80;63.90;;;;;;5092037;28;20047;-33
2021/03/03 12:16:37;;;;;;;1.60;1.27;;;11.80;63.90;;;;;;5090385;28;20029;-33
2021/03/03 12:19:03;;;;;;;1.55;1.35;;;11.80;63.80;;;;;;5092103;28;20028;-33
2021/03/03 12:21:29;;;;;;;1.30;1.20;;;11.80;63.90;;;;;;5090587;28;20025;-33
2021/03/03 12:23:57;;;;;;;1.48;1.23;;;11.80;63.90;;;;;;5086879;28;20047;-33
2021/03/03 12:26:23;;;;;;;;;;;11.80;63.90;;;;;;5086006;28;20032;-33
2021/03/03 12:28:49;;;;;;;1.52;1.20;;;11.80;63.90;;;;;;5086385;28;19904;-33
2021/03/03 12:31:15;;;;;;;1.38;1.27;;;11.80;64.00;;;;;;5089460;28;20070;-33
2021/03/03 12:33:41;;;;;;;1.40;1.20;;;11.80;64.00;;;;;;5090490;28;20037;-34
2021/03/03 12:36:07;;;;;;;1.70;1.35;;;11.70;64.00;;;;;;5085150;28;20082;-33
2021/03/03 12:38:35;;;;;;;1.10;0.93;;;11.80;64.10;;;;;;5084572;28;20036;-33
2021/03/03 12:41:01;;;;;;;1.48;1.23;;;11.80;64.00;;;;;;5088324;28;20024;-33
2021/03/03 12:43:29;;;;;;;1.10;1.00;;;11.70;64.70;;;;;;5091249;28;20032;-33
2021/03/03 12:45:55;;;;;;;1.30;1.20;;;11.70;64.00;;;;;;5070397;28;20404;-33
2021/03/03 12:48:21;;;;;;;1.40;1.20;;;11.70;64.00;;;;;;5090638;28;20035;-33
2021/03/03 12:50:48;;;;;;;1.70;1.13;;;11.70;64.80;;;;;;5090402;28;20028;-32
2021/03/03 12:53:14;;;;;;;1.40;1.20;;;11.70;64.10;;;;;;5083568;28;20036;-33
2021/03/03 12:55:40;;;;;;;1.73;1.33;;;11.70;64.10;;;;;;5087820;28;20037;-33
2021/03/03 12:58:06;;;;;;;1.85;1.30;;;11.70;64.00;;;;;;5087557;28;20121;-32